aviador You're here:

CYQZ Decoded Metar

QUESNEL in BC, CANADA
Report Time2017-10-17 11:00:00
UTC Time2017-10-17 11:21:21
Flight Rules vfr VFR
Wind190° at 03 kt
W.Decomp.*RWY 13: 2.3 kt HW 1.9 kt RCW
W.Rank190° ranks 13
Current wind is below 190° avg. (5.0)
Visibility9999 m
Phenomena:N/A
Clouds:Overcast 070 Hf
Expected CloudBase > 2,000 ft AGL from Temp-Dew spread
Ceiling7,000 ft
Temp10°C (ISA -1)
Dew Point05°C (71% RH)
AAT7.8°C
QNH996 hPa
Density Alt2,320 ft
Elevation1,788 ft
Report Wrong Elevation
Raw Report
CYQZ 171100Z AUTO 19003KT 9SM OVC070 10/05 A2942 RMK SLP972
DENSITY ALT 2100FT=

Extra information for CYQZ:More info

Metar Taf Metar & Taf Last 4 Metars F.Rules Stats Wind Profile Meteogram Temp Stats Airport Information Weather charts Add Link Nearby VenuesMetar ALERT Operation Metar Decoded Social comments